sensor_id;sensor_type;location;lat;lon;timestamp;pressure;altitude;pressure_sealevel;temperature;humidity
79250;BME280;68679;51.030;7.584;2024-02-26T00:01:27;97218.16;;;5.39;71.95
79250;BME280;68679;51.030;7.584;2024-02-26T00:03:52;97223.34;;;5.39;71.42
79250;BME280;68679;51.030;7.584;2024-02-26T00:06:18;97214.00;;;5.38;71.38
79250;BME280;68679;51.030;7.584;2024-02-26T00:08:44;97217.66;;;5.37;71.67
79250;BME280;68679;51.030;7.584;2024-02-26T00:11:09;97213.47;;;5.42;71.03
79250;BME280;68679;51.030;7.584;2024-02-26T00:13:35;97216.34;;;5.40;71.56
79250;BME280;68679;51.030;7.584;2024-02-26T00:16:01;97224.63;;;5.42;71.42
79250;BME280;68679;51.030;7.584;2024-02-26T00:18:26;97220.97;;;5.43;71.50
79250;BME280;68679;51.030;7.584;2024-02-26T00:20:51;97227.94;;;5.48;71.64
79250;BME280;68679;51.030;7.584;2024-02-26T00:23:17;97223.50;;;5.48;71.82
79250;BME280;68679;51.030;7.584;2024-02-26T00:25:42;97221.38;;;5.50;71.59
79250;BME280;68679;51.030;7.584;2024-02-26T00:28:08;97222.91;;;5.51;72.00
79250;BME280;68679;51.030;7.584;2024-02-26T00:30:33;97224.19;;;5.54;71.89
79250;BME280;68679;51.030;7.584;2024-02-26T00:32:59;97217.94;;;5.55;71.92
79250;BME280;68679;51.030;7.584;2024-02-26T00:35:24;97215.63;;;5.53;71.81
79250;BME280;68679;51.030;7.584;2024-02-26T00:37:49;97213.28;;;5.52;72.39
79250;BME280;68679;51.030;7.584;2024-02-26T00:40:15;97214.88;;;5.53;72.39
79250;BME280;68679;51.030;7.584;2024-02-26T00:42:40;97205.59;;;5.47;71.64
79250;BME280;68679;51.030;7.584;2024-02-26T00:45:11;97200.94;;;5.44;71.59
79250;BME280;68679;51.030;7.584;2024-02-26T00:47:36;97205.38;;;5.43;71.91
79250;BME280;68679;51.030;7.584;2024-02-26T00:50:01;97208.19;;;5.47;72.40
79250;BME280;68679;51.030;7.584;2024-02-26T00:52:27;97195.97;;;5.47;72.29
79250;BME280;68679;51.030;7.584;2024-02-26T00:54:52;97196.22;;;5.46;71.83
79250;BME280;68679;51.030;7.584;2024-02-26T00:57:17;97187.19;;;5.43;72.10
79250;BME280;68679;51.030;7.584;2024-02-26T00:59:43;97190.84;;;5.42;71.59
79250;BME280;68679;51.030;7.584;2024-02-26T01:02:08;97193.44;;;5.42;71.62
79250;BME280;68679;51.030;7.584;2024-02-26T01:04:33;97200.94;;;5.44;72.19
79250;BME280;68679;51.030;7.584;2024-02-26T01:06:59;97201.16;;;5.47;71.95
79250;BME280;68679;51.030;7.584;2024-02-26T01:09:24;97207.44;;;5.46;72.25
79250;BME280;68679;51.030;7.584;2024-02-26T01:11:50;97203.53;;;5.44;71.36
79250;BME280;68679;51.030;7.584;2024-02-26T01:14:15;97210.88;;;5.42;72.22
79250;BME280;68679;51.030;7.584;2024-02-26T01:16:40;97205.84;;;5.45;72.14
79250;BME280;68679;51.030;7.584;2024-02-26T01:19:05;97213.94;;;5.44;71.79
79250;BME280;68679;51.030;7.584;2024-02-26T01:21:31;97222.50;;;5.44;72.16
79250;BME280;68679;51.030;7.584;2024-02-26T01:23:56;97211.94;;;5.41;71.91
79250;BME280;68679;51.030;7.584;2024-02-26T01:26:21;97219.13;;;5.44;72.35
79250;BME280;68679;51.030;7.584;2024-02-26T01:28:48;97213.09;;;5.48;72.05
79250;BME280;68679;51.030;7.584;2024-02-26T01:31:13;97218.31;;;5.48;72.41
79250;BME280;68679;51.030;7.584;2024-02-26T01:33:38;97215.47;;;5.45;72.16
79250;BME280;68679;51.030;7.584;2024-02-26T01:36:04;97219.91;;;5.44;72.54
79250;BME280;68679;51.030;7.584;2024-02-26T01:38:29;97221.75;;;5.44;72.18
79250;BME280;68679;51.030;7.584;2024-02-26T01:40:54;97210.09;;;5.41;72.17
79250;BME280;68679;51.030;7.584;2024-02-26T01:43:19;97205.66;;;5.42;72.37
79250;BME280;68679;51.030;7.584;2024-02-26T01:45:45;97205.94;;;5.40;71.97
79250;BME280;68679;51.030;7.584;2024-02-26T01:48:10;97213.75;;;5.40;72.21
79250;BME280;68679;51.030;7.584;2024-02-26T01:50:36;97218.09;;;5.45;72.52
79250;BME280;68679;51.030;7.584;2024-02-26T01:53:03;97212.13;;;5.44;72.51
79250;BME280;68679;51.030;7.584;2024-02-26T01:55:29;97212.41;;;5.43;72.21
79250;BME280;68679;51.030;7.584;2024-02-26T01:57:54;97213.47;;;5.42;72.17
79250;BME280;68679;51.030;7.584;2024-02-26T02:00:20;97216.25;;;5.45;72.88
79250;BME280;68679;51.030;7.584;2024-02-26T02:02:46;97214.72;;;5.44;72.14
79250;BME280;68679;51.030;7.584;2024-02-26T02:05:14;97219.44;;;5.42;72.21
79250;BME280;68679;51.030;7.584;2024-02-26T02:07:40;97222.03;;;5.42;72.39
79250;BME280;68679;51.030;7.584;2024-02-26T02:10:06;97224.06;;;5.45;72.74
79250;BME280;68679;51.030;7.584;2024-02-26T02:12:32;97217.81;;;5.46;72.72
79250;BME280;68679;51.030;7.584;2024-02-26T02:14:59;97213.47;;;5.42;72.53
79250;BME280;68679;51.030;7.584;2024-02-26T02:17:26;97201.53;;;5.41;72.55
79250;BME280;68679;51.030;7.584;2024-02-26T02:19:52;97195.56;;;5.40;72.65
79250;BME280;68679;51.030;7.584;2024-02-26T02:22:17;97191.38;;;5.39;72.53
79250;BME280;68679;51.030;7.584;2024-02-26T02:24:43;97184.66;;;5.38;72.61
79250;BME280;68679;51.030;7.584;2024-02-26T02:27:08;97179.47;;;5.38;72.70
79250;BME280;68679;51.030;7.584;2024-02-26T02:29:33;97172.16;;;5.40;73.02
79250;BME280;68679;51.030;7.584;2024-02-26T02:32:01;97180.72;;;5.41;72.64
79250;BME280;68679;51.030;7.584;2024-02-26T02:34:27;97177.38;;;5.40;73.00
79250;BME280;68679;51.030;7.584;2024-02-26T02:36:53;97180.94;;;5.44;73.11
79250;BME280;68679;51.030;7.584;2024-02-26T02:39:19;97178.13;;;5.41;72.93
79250;BME280;68679;51.030;7.584;2024-02-26T02:41:45;97175.03;;;5.38;73.17
79250;BME280;68679;51.030;7.584;2024-02-26T02:44:11;97184.28;;;5.45;73.02
79250;BME280;68679;51.030;7.584;2024-02-26T02:46:37;97178.31;;;5.44;72.99
79250;BME280;68679;51.030;7.584;2024-02-26T02:49:02;97173.41;;;5.43;73.28
79250;BME280;68679;51.030;7.584;2024-02-26T02:51:27;97176.50;;;5.45;73.17
79250;BME280;68679;51.030;7.584;2024-02-26T02:53:53;97185.06;;;5.45;73.35
79250;BME280;68679;51.030;7.584;2024-02-26T02:56:18;97170.25;;;5.46;73.09
79250;BME280;68679;51.030;7.584;2024-02-26T02:58:43;97176.22;;;5.46;73.43
79250;BME280;68679;51.030;7.584;2024-02-26T03:01:09;97187.41;;;5.47;73.17
79250;BME280;68679;51.030;7.584;2024-02-26T03:03:34;97178.25;;;5.49;73.24
79250;BME280;68679;51.030;7.584;2024-02-26T03:06:01;97172.28;;;5.49;73.26
79250;BME280;68679;51.030;7.584;2024-02-26T03:08:27;97171.28;;;5.45;72.96
79250;BME280;68679;51.030;7.584;2024-02-26T03:10:52;97173.91;;;5.45;72.91
79250;BME280;68679;51.030;7.584;2024-02-26T03:13:17;97183.03;;;5.42;73.11
79250;BME280;68679;51.030;7.584;2024-02-26T03:15:43;97179.69;;;5.42;73.54
79250;BME280;68679;51.030;7.584;2024-02-26T03:18:08;97187.13;;;5.48;73.17
79250;BME280;68679;51.030;7.584;2024-02-26T03:20:33;97179.59;;;5.47;73.02
79250;BME280;68679;51.030;7.584;2024-02-26T03:22:58;97181.50;;;5.41;73.18
79250;BME280;68679;51.030;7.584;2024-02-26T03:25:24;97180.16;;;5.44;73.22
79250;BME280;68679;51.030;7.584;2024-02-26T03:27:49;97181.97;;;5.43;73.48
79250;BME280;68679;51.030;7.584;2024-02-26T03:30:15;97181.44;;;5.46;73.53
79250;BME280;68679;51.030;7.584;2024-02-26T03:32:40;97187.66;;;5.45;73.27
79250;BME280;68679;51.030;7.584;2024-02-26T03:35:06;97189.50;;;5.45;73.19
79250;BME280;68679;51.030;7.584;2024-02-26T03:37:32;97181.97;;;5.43;73.28
79250;BME280;68679;51.030;7.584;2024-02-26T03:39:58;97176.31;;;5.41;73.49
79250;BME280;68679;51.030;7.584;2024-02-26T03:42:23;97169.47;;;5.45;73.35
79250;BME280;68679;51.030;7.584;2024-02-26T03:44:48;97172.66;;;5.42;73.38
79250;BME280;68679;51.030;7.584;2024-02-26T03:47:14;97171.88;;;5.42;73.61
79250;BME280;68679;51.030;7.584;2024-02-26T03:49:39;97179.38;;;5.43;73.65
79250;BME280;68679;51.030;7.584;2024-02-26T03:52:04;97172.34;;;5.44;73.69
79250;BME280;68679;51.030;7.584;2024-02-26T03:54:30;97172.34;;;5.44;73.56
79250;BME280;68679;51.030;7.584;2024-02-26T03:56:55;97166.69;;;5.42;73.64
79250;BME280;68679;51.030;7.584;2024-02-26T03:59:20;97165.63;;;5.43;73.79
79250;BME280;68679;51.030;7.584;2024-02-26T04:01:48;97157.59;;;5.39;73.47
79250;BME280;68679;51.030;7.584;2024-02-26T04:04:14;97158.59;;;5.43;73.96
79250;BME280;68679;51.030;7.584;2024-02-26T04:06:39;97161.66;;;5.45;74.13
79250;BME280;68679;51.030;7.584;2024-02-26T04:09:05;97166.88;;;5.45;73.85
79250;BME280;68679;51.030;7.584;2024-02-26T04:11:30;97158.88;;;5.42;73.90
79250;BME280;68679;51.030;7.584;2024-02-26T04:13:55;97160.97;;;5.39;73.89
79250;BME280;68679;51.030;7.584;2024-02-26T04:16:21;97151.09;;;5.42;73.97
79250;BME280;68679;51.030;7.584;2024-02-26T04:18:47;97170.06;;;5.42;74.38
79250;BME280;68679;51.030;7.584;2024-02-26T04:21:12;97159.44;;;5.38;73.82
79250;BME280;68679;51.030;7.584;2024-02-26T04:23:37;97163.09;;;5.37;74.09
79250;BME280;68679;51.030;7.584;2024-02-26T04:26:03;97169.81;;;5.38;74.25
79250;BME280;68679;51.030;7.584;2024-02-26T04:28:29;97175.72;;;5.44;74.49
79250;BME280;68679;51.030;7.584;2024-02-26T04:30:55;97188.44;;;5.46;74.33
79250;BME280;68679;51.030;7.584;2024-02-26T04:33:21;97192.09;;;5.45;73.86
79250;BME280;68679;51.030;7.584;2024-02-26T04:35:46;97188.25;;;5.42;74.09
79250;BME280;68679;51.030;7.584;2024-02-26T04:38:11;97195.75;;;5.44;74.22
79250;BME280;68679;51.030;7.584;2024-02-26T04:40:37;97198.56;;;5.47;74.08
79250;BME280;68679;51.030;7.584;2024-02-26T04:43:02;97199.41;;;5.43;73.97
79250;BME280;68679;51.030;7.584;2024-02-26T04:45:27;97197.88;;;5.42;74.91
79250;BME280;68679;51.030;7.584;2024-02-26T04:47:53;97196.53;;;5.44;74.07
79250;BME280;68679;51.030;7.584;2024-02-26T04:50:19;97210.03;;;5.46;74.16
79250;BME280;68679;51.030;7.584;2024-02-26T04:52:44;97212.63;;;5.46;74.15
79250;BME280;68679;51.030;7.584;2024-02-26T04:55:09;97206.44;;;5.42;74.06
79250;BME280;68679;51.030;7.584;2024-02-26T04:57:35;97207.75;;;5.39;74.24
79250;BME280;68679;51.030;7.584;2024-02-26T05:00:00;97203.13;;;5.36;74.23
79250;BME280;68679;51.030;7.584;2024-02-26T05:02:25;97206.72;;;5.41;73.98
79250;BME280;68679;51.030;7.584;2024-02-26T05:04:50;97200.47;;;5.42;74.04
79250;BME280;68679;51.030;7.584;2024-02-26T05:07:16;97207.22;;;5.43;74.09
79250;BME280;68679;51.030;7.584;2024-02-26T05:09:42;97213.19;;;5.43;74.08
79250;BME280;68679;51.030;7.584;2024-02-26T05:12:09;97210.09;;;5.41;74.03
79250;BME280;68679;51.030;7.584;2024-02-26T05:14:34;97216.34;;;5.40;73.94
79250;BME280;68679;51.030;7.584;2024-02-26T05:16:59;97218.16;;;5.39;74.11
79250;BME280;68679;51.030;7.584;2024-02-26T05:19:24;97212.69;;;5.41;74.19
79250;BME280;68679;51.030;7.584;2024-02-26T05:21:50;97215.56;;;5.39;74.06
79250;BME280;68679;51.030;7.584;2024-02-26T05:24:16;97216.34;;;5.40;74.20
79250;BME280;68679;51.030;7.584;2024-02-26T05:26:43;97220.50;;;5.41;74.06
79250;BME280;68679;51.030;7.584;2024-02-26T05:29:08;97211.41;;;5.38;73.99
79250;BME280;68679;51.030;7.584;2024-02-26T05:31:33;97219.72;;;5.41;74.33
79250;BME280;68679;51.030;7.584;2024-02-26T05:33:59;97214.22;;;5.42;74.10
79250;BME280;68679;51.030;7.584;2024-02-26T05:36:24;97214.78;;;5.39;74.14
79250;BME280;68679;51.030;7.584;2024-02-26T05:38:50;97223.34;;;5.39;74.06
79250;BME280;68679;51.030;7.584;2024-02-26T05:41:16;97215.06;;;5.37;74.04
79250;BME280;68679;51.030;7.584;2024-02-26T05:43:42;97214.78;;;5.39;74.33
79250;BME280;68679;51.030;7.584;2024-02-26T05:46:07;97219.97;;;5.39;74.35
79250;BME280;68679;51.030;7.584;2024-02-26T05:48:33;97231.44;;;5.38;74.51
79250;BME280;68679;51.030;7.584;2024-02-26T05:50:58;97224.16;;;5.40;74.72
79250;BME280;68679;51.030;7.584;2024-02-26T05:53:24;97226.22;;;5.38;74.78
79250;BME280;68679;51.030;7.584;2024-02-26T05:55:49;97225.94;;;5.39;74.83
79250;BME280;68679;51.030;7.584;2024-02-26T05:58:14;97240.78;;;5.39;74.56
79250;BME280;68679;51.030;7.584;2024-02-26T06:00:40;97235.84;;;5.37;74.71
79250;BME280;68679;51.030;7.584;2024-02-26T06:03:05;97239.50;;;5.36;74.80
79250;BME280;68679;51.030;7.584;2024-02-26T06:05:31;97235.09;;;5.37;74.84
79250;BME280;68679;51.030;7.584;2024-02-26T06:07:56;97243.16;;;5.35;75.06
79250;BME280;68679;51.030;7.584;2024-02-26T06:10:21;97248.38;;;5.35;74.65
79250;BME280;68679;51.030;7.584;2024-02-26T06:12:47;97252.50;;;5.36;74.96
79250;BME280;68679;51.030;7.584;2024-02-26T06:15:13;97258.00;;;5.35;75.10
79250;BME280;68679;51.030;7.584;2024-02-26T06:17:38;97263.19;;;5.35;75.02
79250;BME280;68679;51.030;7.584;2024-02-26T06:20:04;97256.94;;;5.36;75.04
79250;BME280;68679;51.030;7.584;2024-02-26T06:22:31;97262.91;;;5.36;75.24
79250;BME280;68679;51.030;7.584;2024-02-26T06:24:57;97267.03;;;5.37;75.05
79250;BME280;68679;51.030;7.584;2024-02-26T06:27:23;97269.94;;;5.36;75.05
79250;BME280;68679;51.030;7.584;2024-02-26T06:29:49;97269.94;;;5.36;75.23
79250;BME280;68679;51.030;7.584;2024-02-26T06:32:14;97267.63;;;5.34;74.96
79250;BME280;68679;51.030;7.584;2024-02-26T06:34:39;97270.22;;;5.34;75.11
79250;BME280;68679;51.030;7.584;2024-02-26T06:37:07;97279.84;;;5.34;75.18
79250;BME280;68679;51.030;7.584;2024-02-26T06:39:32;97271.00;;;5.35;75.36
79250;BME280;68679;51.030;7.584;2024-02-26T06:41:58;97273.06;;;5.33;75.41
79250;BME280;68679;51.030;7.584;2024-02-26T06:44:26;97279.31;;;5.32;75.62
79250;BME280;68679;51.030;7.584;2024-02-26T06:46:56;97281.94;;;5.32;75.33
79250;BME280;68679;51.030;7.584;2024-02-26T06:49:22;97286.34;;;5.31;75.11
79250;BME280;68679;51.030;7.584;2024-02-26T06:51:47;97282.97;;;5.31;75.28
79250;BME280;68679;51.030;7.584;2024-02-26T06:54:12;97288.19;;;5.31;75.44
79250;BME280;68679;51.030;7.584;2024-02-26T06:56:37;97291.84;;;5.30;75.35
79250;BME280;68679;51.030;7.584;2024-02-26T06:59:03;97290.28;;;5.29;75.40
79250;BME280;68679;51.030;7.584;2024-02-26T07:01:28;97296.25;;;5.29;75.49
79250;BME280;68679;51.030;7.584;2024-02-26T07:03:53;97295.22;;;5.30;75.63
79250;BME280;68679;51.030;7.584;2024-02-26T07:06:19;97304.25;;;5.33;75.73
79250;BME280;68679;51.030;7.584;2024-02-26T07:08:44;97307.91;;;5.32;75.64
79250;BME280;68679;51.030;7.584;2024-02-26T07:11:10;97306.38;;;5.31;75.93
79250;BME280;68679;51.030;7.584;2024-02-26T07:13:36;97312.63;;;5.30;75.70
79250;BME280;68679;51.030;7.584;2024-02-26T07:16:01;97313.41;;;5.30;76.01
79250;BME280;68679;51.030;7.584;2024-02-26T07:18:26;97315.22;;;5.30;75.79
79250;BME280;68679;51.030;7.584;2024-02-26T07:20:52;97324.06;;;5.29;75.73
79250;BME280;68679;51.030;7.584;2024-02-26T07:23:17;97325.34;;;5.31;75.73
79250;BME280;68679;51.030;7.584;2024-02-26T07:25:42;97324.84;;;5.29;75.93
79250;BME280;68679;51.030;7.584;2024-02-26T07:28:09;97332.06;;;5.32;75.82
79250;BME280;68679;51.030;7.584;2024-02-26T07:30:34;97336.22;;;5.33;76.04
79250;BME280;68679;51.030;7.584;2024-02-26T07:33:00;97331.53;;;5.35;76.00
79250;BME280;68679;51.030;7.584;2024-02-26T07:35:25;97340.88;;;5.36;75.81
79250;BME280;68679;51.030;7.584;2024-02-26T07:37:52;97340.09;;;5.36;75.88
79250;BME280;68679;51.030;7.584;2024-02-26T07:40:17;97328.66;;;5.37;76.03
79250;BME280;68679;51.030;7.584;2024-02-26T07:42:43;97339.81;;;5.37;76.02
79250;BME280;68679;51.030;7.584;2024-02-26T07:45:09;97339.53;;;5.39;76.15
79250;BME280;68679;51.030;7.584;2024-02-26T07:47:35;97338.75;;;5.38;75.71
79250;BME280;68679;51.030;7.584;2024-02-26T07:50:01;97341.34;;;5.38;75.96
79250;BME280;68679;51.030;7.584;2024-02-26T07:52:26;97333.84;;;5.37;76.61
79250;BME280;68679;51.030;7.584;2024-02-26T07:54:51;97345.25;;;5.41;76.37
79250;BME280;68679;51.030;7.584;2024-02-26T07:57:17;97346.78;;;5.42;76.34
79250;BME280;68679;51.030;7.584;2024-02-26T07:59:42;97350.63;;;5.45;75.93
79250;BME280;68679;51.030;7.584;2024-02-26T08:02:09;97342.06;;;5.44;75.99
79250;BME280;68679;51.030;7.584;2024-02-26T08:04:35;97350.16;;;5.43;75.90
79250;BME280;68679;51.030;7.584;2024-02-26T08:07:00;97348.31;;;5.43;76.06
79250;BME280;68679;51.030;7.584;2024-02-26T08:09:25;97352.47;;;5.44;75.91
79250;BME280;68679;51.030;7.584;2024-02-26T08:11:51;97348.81;;;5.45;76.38
79250;BME280;68679;51.030;7.584;2024-02-26T08:14:16;97361.56;;;5.47;76.56
79250;BME280;68679;51.030;7.584;2024-02-26T08:16:41;97357.91;;;5.48;76.42
79250;BME280;68679;51.030;7.584;2024-02-26T08:19:06;97368.00;;;5.49;76.28
79250;BME280;68679;51.030;7.584;2024-02-26T08:21:32;97370.31;;;5.51;76.36
79250;BME280;68679;51.030;7.584;2024-02-26T08:23:57;97372.16;;;5.50;76.55
79250;BME280;68679;51.030;7.584;2024-02-26T08:26:22;97375.25;;;5.52;76.35
79250;BME280;68679;51.030;7.584;2024-02-26T08:28:49;97378.34;;;5.54;76.40
79250;BME280;68679;51.030;7.584;2024-02-26T08:31:16;97376.50;;;5.55;76.50
79250;BME280;68679;51.030;7.584;2024-02-26T08:33:41;97379.59;;;5.57;76.22
79250;BME280;68679;51.030;7.584;2024-02-26T08:36:08;97384.81;;;5.57;76.69
79250;BME280;68679;51.030;7.584;2024-02-26T08:38:33;97388.47;;;5.56;76.38
79250;BME280;68679;51.030;7.584;2024-02-26T08:41:01;97380.13;;;5.59;76.85
79250;BME280;68679;51.030;7.584;2024-02-26T08:43:27;97385.50;;;5.62;76.74
79250;BME280;68679;51.030;7.584;2024-02-26T08:45:53;97392.00;;;5.65;76.56
79250;BME280;68679;51.030;7.584;2024-02-26T08:48:18;97390.94;;;5.66;77.06
79250;BME280;68679;51.030;7.584;2024-02-26T08:50:43;97394.03;;;5.68;76.84
79250;BME280;68679;51.030;7.584;2024-02-26T08:53:09;97403.13;;;5.71;77.03
79250;BME280;68679;51.030;7.584;2024-02-26T08:55:34;97407.25;;;5.72;76.91
79250;BME280;68679;51.030;7.584;2024-02-26T08:58:00;97404.38;;;5.73;76.81
79250;BME280;68679;51.030;7.584;2024-02-26T09:00:25;97404.38;;;5.73;77.05
79250;BME280;68679;51.030;7.584;2024-02-26T09:02:50;97408.22;;;5.76;77.04
79250;BME280;68679;51.030;7.584;2024-02-26T09:05:15;97420.19;;;5.77;77.00
79250;BME280;68679;51.030;7.584;2024-02-26T09:07:41;97415.78;;;5.77;77.08
79250;BME280;68679;51.030;7.584;2024-02-26T09:10:07;97413.66;;;5.79;76.92
79250;BME280;68679;51.030;7.584;2024-02-26T09:12:36;97415.97;;;5.81;77.04
79250;BME280;68679;51.030;7.584;2024-02-26T09:15:01;97418.84;;;5.79;76.76
79250;BME280;68679;51.030;7.584;2024-02-26T09:17:26;97416.25;;;5.79;77.15
79250;BME280;68679;51.030;7.584;2024-02-26T09:19:52;97423.00;;;5.80;76.72
79250;BME280;68679;51.030;7.584;2024-02-26T09:22:17;97426.38;;;5.81;76.82
79250;BME280;68679;51.030;7.584;2024-02-26T09:24:42;97427.16;;;5.81;76.96
79250;BME280;68679;51.030;7.584;2024-02-26T09:27:07;97434.94;;;5.81;77.03
79250;BME280;68679;51.030;7.584;2024-02-26T09:29:35;97420.41;;;5.80;77.04
79250;BME280;68679;51.030;7.584;2024-02-26T09:32:00;97429.50;;;5.83;76.91
79250;BME280;68679;51.030;7.584;2024-02-26T09:34:26;97433.06;;;5.87;76.79
79250;BME280;68679;51.030;7.584;2024-02-26T09:36:51;97435.19;;;5.85;77.09
79250;BME280;68679;51.030;7.584;2024-02-26T09:39:16;97433.84;;;5.87;76.95
79250;BME280;68679;51.030;7.584;2024-02-26T09:41:46;97431.75;;;5.89;77.12
79250;BME280;68679;51.030;7.584;2024-02-26T09:44:14;97445.81;;;5.88;77.00
79250;BME280;68679;51.030;7.584;2024-02-26T09:46:40;97449.69;;;5.91;77.01
79250;BME280;68679;51.030;7.584;2024-02-26T09:49:06;97441.91;;;5.91;76.97
79250;BME280;68679;51.030;7.584;2024-02-26T09:51:33;97439.78;;;5.93;77.68
79250;BME280;68679;51.030;7.584;2024-02-26T09:53:59;97438.72;;;5.94;77.44
79250;BME280;68679;51.030;7.584;2024-02-26T09:56:26;97443.16;;;5.94;77.53
79250;BME280;68679;51.030;7.584;2024-02-26T09:58:53;97444.16;;;5.98;77.12
79250;BME280;68679;51.030;7.584;2024-02-26T10:01:20;97454.84;;;5.96;77.36
79250;BME280;68679;51.030;7.584;2024-02-26T10:03:48;97461.00;;;6.00;77.35
79250;BME280;68679;51.030;7.584;2024-02-26T10:06:16;97463.63;;;6.00;77.12
79250;BME280;68679;51.030;7.584;2024-02-26T10:08:43;97468.81;;;6.00;77.03
79250;BME280;68679;51.030;7.584;2024-02-26T10:11:08;97470.88;;;6.03;77.28
79250;BME280;68679;51.030;7.584;2024-02-26T10:13:37;97468.50;;;6.07;77.62
79250;BME280;68679;51.030;7.584;2024-02-26T10:16:03;97466.66;;;6.07;77.45
79250;BME280;68679;51.030;7.584;2024-02-26T10:18:48;97482.28;;;6.07;77.35
79250;BME280;68679;51.030;7.584;2024-02-26T10:21:16;97474.72;;;6.06;77.58
79250;BME280;68679;51.030;7.584;2024-02-26T10:23:43;97480.16;;;6.09;77.58
79250;BME280;68679;51.030;7.584;2024-02-26T10:26:10;97486.63;;;6.12;77.76
79250;BME280;68679;51.030;7.584;2024-02-26T10:28:36;97473.63;;;6.12;77.39
79250;BME280;68679;51.030;7.584;2024-02-26T10:31:02;97483.00;;;6.13;77.66
79250;BME280;68679;51.030;7.584;2024-02-26T10:33:27;97484.25;;;6.15;77.68
79250;BME280;68679;51.030;7.584;2024-02-26T10:35:53;97489.47;;;6.15;77.23
79250;BME280;68679;51.030;7.584;2024-02-26T10:38:19;97489.47;;;6.15;77.43
79250;BME280;68679;51.030;7.584;2024-02-26T10:40:46;97489.47;;;6.15;77.47
79250;BME280;68679;51.030;7.584;2024-02-26T10:43:11;97492.53;;;6.17;77.83
79250;BME280;68679;51.030;7.584;2024-02-26T10:45:39;97489.41;;;6.21;78.12
79250;BME280;68679;51.030;7.584;2024-02-26T10:48:10;97507.81;;;6.24;77.97
79250;BME280;68679;51.030;7.584;2024-02-26T10:50:36;97506.50;;;6.27;77.90
79250;BME280;68679;51.030;7.584;2024-02-26T10:53:03;97511.69;;;6.27;77.66
79250;BME280;68679;51.030;7.584;2024-02-26T10:55:30;97506.97;;;6.29;77.67
79250;BME280;68679;51.030;7.584;2024-02-26T10:57:58;97505.38;;;6.33;77.90
79250;BME280;68679;51.030;7.584;2024-02-26T11:00:24;97508.16;;;6.36;77.94
79250;BME280;68679;51.030;7.584;2024-02-26T11:02:51;97508.69;;;6.38;77.82
79250;BME280;68679;51.030;7.584;2024-02-26T11:05:17;97512.53;;;6.41;77.82
79250;BME280;68679;51.030;7.584;2024-02-26T11:07:42;97516.44;;;6.43;77.89
79250;BME280;68679;51.030;7.584;2024-02-26T11:10:11;97518.75;;;6.45;77.83
79250;BME280;68679;51.030;7.584;2024-02-26T11:12:37;97522.13;;;6.45;78.02
79250;BME280;68679;51.030;7.584;2024-02-26T11:15:04;97514.31;;;6.45;77.81
79250;BME280;68679;51.030;7.584;2024-02-26T11:17:31;97528.34;;;6.50;77.79
79250;BME280;68679;51.030;7.584;2024-02-26T11:19:58;97519.94;;;6.53;78.08
79250;BME280;68679;51.030;7.584;2024-02-26T11:22:27;97515.22;;;6.55;78.15
79250;BME280;68679;51.030;7.584;2024-02-26T11:24:56;97520.66;;;6.58;78.00
79250;BME280;68679;51.030;7.584;2024-02-26T11:27:26;97527.09;;;6.61;78.17
79250;BME280;68679;51.030;7.584;2024-02-26T11:29:56;97519.28;;;6.61;77.97
79250;BME280;68679;51.030;7.584;2024-02-26T11:32:23;97520.88;;;6.62;78.04
79250;BME280;68679;51.030;7.584;2024-02-26T11:34:49;97529.16;;;6.64;78.28
79250;BME280;68679;51.030;7.584;2024-02-26T11:37:16;97523.66;;;6.65;78.25
79250;BME280;68679;51.030;7.584;2024-02-26T11:39:42;97524.19;;;6.67;78.21
79250;BME280;68679;51.030;7.584;2024-02-26T11:42:08;97532.97;;;6.71;78.32
79250;BME280;68679;51.030;7.584;2024-02-26T11:44:34;97532.19;;;6.71;77.81
79250;BME280;68679;51.030;7.584;2024-02-26T11:47:13;97535.00;;;6.75;78.44
79250;BME280;68679;51.030;7.584;2024-02-26T11:49:38;97533.38;;;6.79;78.55
79250;BME280;68679;51.030;7.584;2024-02-26T11:52:08;97531.28;;;6.81;78.35
79250;BME280;68679;51.030;7.584;2024-02-26T11:54:38;97538.03;;;6.82;78.15
79250;BME280;68679;51.030;7.584;2024-02-26T11:57:04;97532.81;;;6.82;77.97
79250;BME280;68679;51.030;7.584;2024-02-26T11:59:39;97542.47;;;6.81;78.51
79250;BME280;68679;51.030;7.584;2024-02-26T12:02:07;97541.63;;;6.86;78.22
79250;BME280;68679;51.030;7.584;2024-02-26T12:04:33;97542.41;;;6.86;78.16
79250;BME280;68679;51.030;7.584;2024-02-26T12:07:01;97548.56;;;6.90;78.51
79250;BME280;68679;51.030;7.584;2024-02-26T12:09:38;97549.09;;;6.92;78.38
79250;BME280;68679;51.030;7.584;2024-02-26T12:12:07;97551.41;;;6.94;78.39
79250;BME280;68679;51.030;7.584;2024-02-26T12:14:40;97551.09;;;6.95;78.47
79250;BME280;68679;51.030;7.584;2024-02-26T12:17:07;97549.50;;;6.99;78.44
79250;BME280;68679;51.030;7.584;2024-02-26T12:19:34;97553.34;;;7.02;78.33
79250;BME280;68679;51.030;7.584;2024-02-26T12:22:00;97540.31;;;7.02;78.39
79250;BME280;68679;51.030;7.584;2024-02-26T12:24:25;97547.06;;;7.03;78.41
79250;BME280;68679;51.030;7.584;2024-02-26T12:26:50;97541.09;;;7.03;78.54
79250;BME280;68679;51.030;7.584;2024-02-26T12:29:16;97548.13;;;7.02;78.07
79250;BME280;68679;51.030;7.584;2024-02-26T12:31:41;97542.94;;;7.02;78.44
79250;BME280;68679;51.030;7.584;2024-02-26T12:34:07;97559.84;;;7.05;78.06
79250;BME280;68679;51.030;7.584;2024-02-26T12:36:34;97554.63;;;7.05;78.43
79250;BME280;68679;51.030;7.584;2024-02-26T12:39:01;97561.56;;;7.09;78.50
79250;BME280;68679;51.030;7.584;2024-02-26T12:41:27;97562.34;;;7.10;78.26
79250;BME280;68679;51.030;7.584;2024-02-26T12:43:53;97566.78;;;7.09;78.04
79250;BME280;68679;51.030;7.584;2024-02-26T12:46:18;97570.69;;;7.12;78.15
79250;BME280;68679;51.030;7.584;2024-02-26T12:48:44;97571.16;;;7.14;78.26
79250;BME280;68679;51.030;7.584;2024-02-26T12:51:12;97573.22;;;7.17;78.12
79250;BME280;68679;51.030;7.584;2024-02-26T12:53:38;97578.13;;;7.18;78.48
79250;BME280;68679;51.030;7.584;2024-02-26T12:56:06;97583.34;;;7.18;78.08
79250;BME280;68679;51.030;7.584;2024-02-26T12:58:33;97584.88;;;7.19;78.37
79250;BME280;68679;51.030;7.584;2024-02-26T13:00:59;97586.44;;;7.20;78.34
79250;BME280;68679;51.030;7.584;2024-02-26T13:03:25;97600.75;;;7.23;78.35